Time;durP1;ratioP1;P1;durP2;ratioP2;P2;SDS_P1;SDS_P2;PMS_P1;PMS_P2;Temp;Humidity;BMP_temperature;BMP_pressure;BME280_temperature;BME280_humidity;BME280_pressure;Samples;Min_cycle;Max_cycle;Signal;HPM_P1;HPM_P2
2022/08/23 00:00:48;;;;;;;;;;;;;;;;;;5020962;28;20500;-80
2022/08/23 00:03:34;;;;;;;;;;;;;;;;;;5017784;28;19929;-78
2022/08/23 00:06:21;;;;;;;;;;;;;;;;;;5027459;28;19913;-79
2022/08/23 00:09:08;;;;;;;;;;;;;;;;;;5020881;28;19917;-78
2022/08/23 00:11:58;;;;;;;;;;;;;;;;;;5030615;28;19929;-78
2022/08/23 00:14:44;;;;;;;;;;;;;;;;;;5029680;28;19913;-77
2022/08/23 00:17:31;;;;;;;;;;;;;;;;;;5023363;28;19910;-79
2022/08/23 00:20:17;;;;;;;;;;;;;;;;;;5027747;28;19915;-77
2022/08/23 00:23:04;;;;;;;;;;;;;;;;;;5018039;28;19927;-76
2022/08/23 00:25:50;;;;;;;;;;;;;;;;;;5032236;28;20358;-81
2022/08/23 00:28:37;;;;;;;;;;;;;;;;;;5031907;28;19913;-80
2022/08/23 00:31:23;;;;;;;;;;;;;;;;;;5023458;28;19981;-78
2022/08/23 00:34:10;;;;;;;;;;;;;;;;;;5032117;28;20288;-77
2022/08/23 00:36:56;;;;;;;;;;;;;;;;;;5031830;28;19920;-77
2022/08/23 00:39:43;;;;;;;;;;;;;;;;;;5027616;28;19909;-80
2022/08/23 00:48:41;;;;;;;;;;;;;;;;;;5022848;28;20661;-77
2022/08/23 00:51:27;;;;;;;;;;;;;;;;;;5029639;28;19917;-77
2022/08/23 00:54:14;;;;;;;;;;;;;;;;;;5028300;28;19949;-77
2022/08/23 00:57:01;;;;;;;;;;;;;;;;;;5023922;28;19909;-78
2022/08/23 00:59:47;;;;;;;;;;;;;;;;;;5027166;28;19916;-77
2022/08/23 01:02:34;;;;;;;;;;;;;;;;;;5029598;28;20400;-78
2022/08/23 01:05:20;;;;;;;;;;;;;;;;;;5030097;28;20369;-78
2022/08/23 01:08:07;;;;;;;;;;;;;;;;;;5028026;28;19920;-77
2022/08/23 01:10:53;;;;;;;;;;;;;;;;;;5017810;28;19909;-78
2022/08/23 01:13:40;;;;;;;;;;;;;;;;;;5030717;28;19932;-78
2022/08/23 01:16:26;;;;;;;;;;;;;;;;;;5018901;28;19916;-78
2022/08/23 01:19:12;;;;;;;;;;;;;;;;;;5027712;28;19916;-75
2022/08/23 01:21:59;;;;;;;;;;;;;;;;;;5028008;28;19928;-75
2022/08/23 01:24:45;;;;;;;;;;;;;;;;;;5019803;28;19936;-77
2022/08/23 01:27:32;;;;;;;;;;;;;;;;;;5027941;28;20317;-77
2022/08/23 01:30:19;;;;;;;;;;;;;;;;;;5028470;28;19913;-77
2022/08/23 01:33:05;;;;;;;;;;;;;;;;;;5021711;28;19916;-77
2022/08/23 01:35:55;;;;;;;;;;;;;;;;;;5026012;28;20297;-77
2022/08/23 01:38:41;;;;;;;;;;;;;;;;;;5027650;28;19909;-77
2022/08/23 01:41:28;;;;;;;;;;;;;;;;;;5013268;28;19928;-77
2022/08/23 01:44:14;;;;;;;;;;;;;;;;;;5022744;28;19927;-76
2022/08/23 01:47:01;;;;;;;;;;;;;;;;;;5029647;28;19924;-76
2022/08/23 01:49:47;;;;;;;;;;;;;;;;;;5028364;28;19932;-76
2022/08/23 01:52:33;;;;;;;;;;;;;;;;;;5019277;28;19925;-76
2022/08/23 01:55:20;;;;;;;;;;;;;;;;;;5015720;28;19913;-76
2022/08/23 01:58:07;;;;;;;;;;;;;;;;;;5012515;28;20527;-75
2022/08/23 02:00:53;;;;;;;;;;;;;;;;;;5029600;28;19909;-76
2022/08/23 02:03:40;;;;;;;;;;;;;;;;;;5023582;28;20297;-76
2022/08/23 02:06:26;;;;;;;;;;;;;;;;;;5023909;28;19917;-76
2022/08/23 02:09:12;;;;;;;;;;;;;;;;;;5022718;28;20408;-78
2022/08/23 02:11:59;;;;;;;;;;;;;;;;;;5024365;28;19917;-76
2022/08/23 02:14:45;;;;;;;;;;;;;;;;;;5026463;28;19917;-76
2022/08/23 02:17:32;;;;;;;;;;;;;;;;;;5023828;28;19917;-75
2022/08/23 02:20:18;;;;;;;;;;;;;;;;;;5027447;28;19913;-77
2022/08/23 02:23:05;;;;;;;;;;;;;;;;;;5026374;28;20270;-76
2022/08/23 02:25:51;;;;;;;;;;;;;;;;;;5027661;28;19917;-77
2022/08/23 02:28:38;;;;;;;;;;;;;;;;;;5026684;28;20297;-76
2022/08/23 02:31:25;;;;;;;;;;;;;;;;;;5020429;28;19935;-76
2022/08/23 02:34:11;;;;;;;;;;;;;;;;;;5018626;28;19909;-74
2022/08/23 02:36:58;;;;;;;;;;;;;;;;;;5019832;28;19913;-75
2022/08/23 02:39:44;;;;;;;;;;;;;;;;;;5018035;28;19924;-75
2022/08/23 02:42:31;;;;;;;;;;;;;;;;;;5021364;28;20875;-76
2022/08/23 02:45:17;;;;;;;;;;;;;;;;;;5024643;28;19920;-76
2022/08/23 02:48:04;;;;;;;;;;;;;;;;;;5009319;28;20289;-75
2022/08/23 02:50:51;;;;;;;;;;;;;;;;;;5020335;28;19913;-76
2022/08/23 02:53:37;;;;;;;;;;;;;;;;;;5019335;28;19909;-76
2022/08/23 02:56:23;;;;;;;;;;;;;;;;;;5022399;28;19937;-75
2022/08/23 02:59:10;;;;;;;;;;;;;;;;;;5020093;28;19913;-76
2022/08/23 03:01:57;;;;;;;;;;;;;;;;;;5026282;28;20291;-77
2022/08/23 03:04:43;;;;;;;;;;;;;;;;;;5010653;28;20348;-76
2022/08/23 03:07:30;;;;;;;;;;;;;;;;;;5027255;28;19917;-78
2022/08/23 03:10:16;;;;;;;;;;;;;;;;;;5026399;28;19920;-78
2022/08/23 03:13:03;;;;;;;;;;;;;;;;;;5016725;28;19929;-78
2022/08/23 03:15:49;;;;;;;;;;;;;;;;;;4999664;28;19913;-77
2022/08/23 03:18:35;;;;;;;;;;;;;;;;;;5009119;28;20293;-79
2022/08/23 03:21:22;;;;;;;;;;;;;;;;;;5007887;28;19914;-78
2022/08/23 03:24:08;;;;;;;;;;;;;;;;;;5008554;28;20370;-78
2022/08/23 03:26:55;;;;;;;;;;;;;;;;;;4992488;28;19927;-78
2022/08/23 03:29:41;;;;;;;;;;;;;;;;;;5000314;28;20392;-78
2022/08/23 03:32:28;;;;;;;;;;;;;;;;;;5008226;28;19909;-78
2022/08/23 03:35:14;;;;;;;;;;;;;;;;;;5009792;28;20370;-76
2022/08/23 03:38:01;;;;;;;;;;;;;;;;;;5000347;28;19917;-77
2022/08/23 03:40:51;;;;;;;;;;;;;;;;;;5003417;28;19913;-76
2022/08/23 03:43:37;;;;;;;;;;;;;;;;;;5007759;28;19941;-76
2022/08/23 03:46:24;;;;;;;;;;;;;;;;;;5010792;28;19917;-77
2022/08/23 03:49:10;;;;;;;;;;;;;;;;;;5003100;28;19917;-76
2022/08/23 03:51:57;;;;;;;;;;;;;;;;;;5011638;28;19909;-76
2022/08/23 03:54:43;;;;;;;;;;;;;;;;;;5012878;28;19910;-77
2022/08/23 03:57:30;;;;;;;;;;;;;;;;;;5009144;28;19922;-76
2022/08/23 04:00:16;;;;;;;;;;;;;;;;;;5010953;28;19913;-77
2022/08/23 04:03:03;;;;;;;;;;;;;;;;;;5008853;28;19928;-77
2022/08/23 04:05:49;;;;;;;;;;;;;;;;;;5007947;28;20373;-77
2022/08/23 04:08:36;;;;;;;;;;;;;;;;;;5009200;28;19913;-76
2022/08/23 04:11:22;;;;;;;;;;;;;;;;;;5010890;28;20501;-76
2022/08/23 04:14:12;;;;;;;;;;;;;;;;;;5013984;28;19925;-78
2022/08/23 04:16:58;;;;;;;;;;;;;;;;;;5028999;28;20660;-78
2022/08/23 04:19:44;;;;;;;;;;;;;;;;;;5027001;28;19917;-78
2022/08/23 04:22:32;;;;;;;;;;;;;;;;;;5026104;28;19921;-77
2022/08/23 04:25:18;;;;;;;;;;;;;;;;;;5028544;28;19917;-78
2022/08/23 04:28:05;;;;;;;;;;;;;;;;;;5027783;28;19913;-77
2022/08/23 04:30:51;;;;;;;;;;;;;;;;;;5027762;28;19935;-77
2022/08/23 04:33:38;;;;;;;;;;;;;;;;;;5027523;28;19909;-78
2022/08/23 04:36:24;;;;;;;;;;;;;;;;;;5017922;28;19920;-78
2022/08/23 04:39:11;;;;;;;;;;;;;;;;;;5030279;28;20387;-77
2022/08/23 04:45:02;;;;;;;;;;;;;;;;;;5026370;28;19944;-76
2022/08/23 04:47:49;;;;;;;;;;;;;;;;;;5023875;28;20392;-77
2022/08/23 04:50:35;;;;;;;;;;;;;;;;;;5030102;28;19920;-77
2022/08/23 04:53:22;;;;;;;;;;;;;;;;;;5020117;28;19909;-77
2022/08/23 04:56:09;;;;;;;;;;;;;;;;;;5019158;28;19936;-78
2022/08/23 04:58:55;;;;;;;;;;;;;;;;;;5019693;28;19917;-76
2022/08/23 05:01:42;;;;;;;;;;;;;;;;;;5028382;28;19909;-76
2022/08/23 05:04:28;;;;;;;;;;;;;;;;;;5019885;28;20297;-74
2022/08/23 05:07:15;;;;;;;;;;;;;;;;;;5022855;28;19914;-78
2022/08/23 05:10:02;;;;;;;;;;;;;;;;;;5027265;28;19910;-75
2022/08/23 05:12:48;;;;;;;;;;;;;;;;;;5009501;28;19926;-77
2022/08/23 05:15:35;;;;;;;;;;;;;;;;;;5001838;28;19921;-75
2022/08/23 05:18:21;;;;;;;;;;;;;;;;;;4993727;28;20317;-76
2022/08/23 05:21:08;;;;;;;;;;;;;;;;;;5009125;28;19914;-77
2022/08/23 05:23:54;;;;;;;;;;;;;;;;;;4993879;28;20598;-77
2022/08/23 05:26:41;;;;;;;;;;;;;;;;;;4991980;28;19909;-78
2022/08/23 05:29:27;;;;;;;;;;;;;;;;;;5004897;28;20385;-78
2022/08/23 05:32:13;;;;;;;;;;;;;;;;;;5008801;28;19910;-78
2022/08/23 05:35:00;;;;;;;;;;;;;;;;;;4988056;28;19925;-79
2022/08/23 05:37:46;;;;;;;;;;;;;;;;;;4996065;28;19916;-78
2022/08/23 05:40:33;;;;;;;;;;;;;;;;;;4999860;28;19921;-78
2022/08/23 05:43:19;;;;;;;;;;;;;;;;;;5005180;28;19921;-78
2022/08/23 05:46:06;;;;;;;;;;;;;;;;;;5000551;28;19920;-77
2022/08/23 05:48:52;;;;;;;;;;;;;;;;;;5004208;28;19918;-77
2022/08/23 05:51:40;;;;;;;;;;;;;;;;;;5006530;28;19909;-79
2022/08/23 05:54:27;;;;;;;;;;;;;;;;;;5002744;28;19914;-79
2022/08/23 05:57:13;;;;;;;;;;;;;;;;;;5004787;28;20079;-79
2022/08/23 06:00:00;;;;;;;;;;;;;;;;;;5001893;28;20301;-77
2022/08/23 06:02:47;;;;;;;;;;;;;;;;;;4983932;28;19921;-76
2022/08/23 06:05:34;;;;;;;;;;;;;;;;;;5005206;28;20275;-77
2022/08/23 06:08:21;;;;;;;;;;;;;;;;;;5004367;28;19909;-77
2022/08/23 06:11:07;;;;;;;;;;;;;;;;;;5007279;28;19936;-77
2022/08/23 06:13:54;;;;;;;;;;;;;;;;;;5005859;28;20024;-77
2022/08/23 06:16:41;;;;;;;;;;;;;;;;;;5006015;28;19913;-77
2022/08/23 06:19:27;;;;;;;;;;;;;;;;;;4991503;28;19919;-77
2022/08/23 06:22:13;;;;;;;;;;;;;;;;;;5004547;28;19913;-77
2022/08/23 06:25:00;;;;;;;;;;;;;;;;;;5005367;28;19914;-78
2022/08/23 06:27:46;;;;;;;;;;;;;;;;;;5005291;28;20411;-78
2022/08/23 06:30:33;;;;;;;;;;;;;;;;;;5006147;28;19929;-77
2022/08/23 06:33:19;;;;;;;;;;;;;;;;;;5007252;28;20271;-77
2022/08/23 06:36:06;;;;;;;;;;;;;;;;;;5001821;28;19919;-77
2022/08/23 06:38:52;;;;;;;;;;;;;;;;;;5005933;28;20381;-76
2022/08/23 06:41:39;;;;;;;;;;;;;;;;;;5008388;28;19914;-77
2022/08/23 06:44:26;;;;;;;;;;;;;;;;;;5005454;28;19928;-77
2022/08/23 06:47:12;;;;;;;;;;;;;;;;;;5006783;28;20019;-78
2022/08/23 06:49:59;;;;;;;;;;;;;;;;;;5009002;28;20007;-77
2022/08/23 06:52:45;;;;;;;;;;;;;;;;;;5008949;28;19920;-77
2022/08/23 06:55:32;;;;;;;;;;;;;;;;;;5006866;28;19913;-78
2022/08/23 06:58:18;;;;;;;;;;;;;;;;;;5004944;28;19933;-78
2022/08/23 07:01:05;;;;;;;;;;;;;;;;;;5007555;28;20326;-77
2022/08/23 07:03:51;;;;;;;;;;;;;;;;;;5005956;28;19936;-78
2022/08/23 07:06:38;;;;;;;;;;;;;;;;;;5007170;28;20289;-77
2022/08/23 07:09:24;;;;;;;;;;;;;;;;;;5007363;28;20392;-77
2022/08/23 07:12:11;;;;;;;;;;;;;;;;;;5004688;28;19928;-77
2022/08/23 07:14:57;;;;;;;;;;;;;;;;;;5027155;28;20448;-77
2022/08/23 07:17:43;;;;;;;;;;;;;;;;;;5025988;28;19925;-77
2022/08/23 07:20:30;;;;;;;;;;;;;;;;;;5011147;28;20746;-78
2022/08/23 07:23:16;;;;;;;;;;;;;;;;;;5028989;28;19924;-78
2022/08/23 07:26:03;;;;;;;;;;;;;;;;;;5032856;28;20431;-78
2022/08/23 07:28:49;;;;;;;;;;;;;;;;;;5016800;28;19929;-77
2022/08/23 07:31:36;;;;;;;;;;;;;;;;;;5028546;28;19936;-77
2022/08/23 07:34:23;;;;;;;;;;;;;;;;;;5018876;28;19913;-78
2022/08/23 07:37:10;;;;;;;;;;;;;;;;;;5016530;28;19917;-77
2022/08/23 07:39:56;;;;;;;;;;;;;;;;;;5028796;28;19919;-78
2022/08/23 07:42:43;;;;;;;;;;;;;;;;;;5030145;28;19920;-77
2022/08/23 07:45:29;;;;;;;;;;;;;;;;;;5032071;28;20358;-77
2022/08/23 07:48:16;;;;;;;;;;;;;;;;;;5016084;28;19931;-77
2022/08/23 07:51:02;;;;;;;;;;;;;;;;;;5016911;28;19921;-76
2022/08/23 07:53:49;;;;;;;;;;;;;;;;;;5008790;28;20383;-75
2022/08/23 07:56:35;;;;;;;;;;;;;;;;;;5029020;28;19913;-76
2022/08/23 07:59:22;;;;;;;;;;;;;;;;;;5031236;28;19909;-76
2022/08/23 08:02:09;;;;;;;;;;;;;;;;;;5029690;28;19916;-75
2022/08/23 08:04:55;;;;;;;;;;;;;;;;;;5026006;28;19929;-77
2022/08/23 08:07:42;;;;;;;;;;;;;;;;;;5027490;28;19993;-77
2022/08/23 08:10:28;;;;;;;;;;;;;;;;;;5029696;28;20305;-78
2022/08/23 08:13:15;;;;;;;;;;;;;;;;;;5027873;28;19937;-77
2022/08/23 08:16:02;;;;;;;;;;;;;;;;;;5019594;28;20284;-77
2022/08/23 08:18:49;;;;;;;;;;;;;;;;;;5028962;28;19920;-77
2022/08/23 08:21:35;;;;;;;;;;;;;;;;;;5029491;28;19923;-76
2022/08/23 08:24:22;;;;;;;;;;;;;;;;;;5015578;28;19917;-76
2022/08/23 08:27:09;;;;;;;;;;;;;;;;;;5012037;28;19913;-76
2022/08/23 08:29:56;;;;;;;;;;;;;;;;;;5027748;28;19932;-76
2022/08/23 08:32:42;;;;;;;;;;;;;;;;;;5028298;28;20653;-77
2022/08/23 08:35:29;;;;;;;;;;;;;;;;;;5029237;28;19917;-76
2022/08/23 08:38:15;;;;;;;;;;;;;;;;;;5030798;28;19913;-77
2022/08/23 08:41:02;;;;;;;;;;;;;;;;;;5030263;28;19917;-76
2022/08/23 08:43:48;;;;;;;;;;;;;;;;;;5013248;28;19928;-76
2022/08/23 08:46:35;;;;;;;;;;;;;;;;;;5030775;28;19964;-76
2022/08/23 08:49:21;;;;;;;;;;;;;;;;;;5013183;28;19917;-75
2022/08/23 08:52:08;;;;;;;;;;;;;;;;;;5025601;28;20049;-76
2022/08/23 08:54:54;;;;;;;;;;;;;;;;;;5020526;28;19920;-77
2022/08/23 08:57:41;;;;;;;;;;;;;;;;;;5030033;28;20597;-77
2022/08/23 09:00:28;;;;;;;;;;;;;;;;;;5024376;28;20296;-77
2022/08/23 09:03:14;;;;;;;;;;;;;;;;;;5028192;28;19928;-78
2022/08/23 09:06:01;;;;;;;;;;;;;;;;;;5026337;28;19913;-78
2022/08/23 09:08:47;;;;;;;;;;;;;;;;;;5027151;28;19913;-78
2022/08/23 09:11:34;;;;;;;;;;;;;;;;;;5030250;28;20365;-77
2022/08/23 09:14:20;;;;;;;;;;;;;;;;;;5012154;28;19925;-77
2022/08/23 09:17:06;;;;;;;;;;;;;;;;;;5024329;28;19917;-76
2022/08/23 09:19:53;;;;;;;;;;;;;;;;;;5004403;28;19919;-78
2022/08/23 09:22:40;;;;;;;;;;;;;;;;;;5034377;28;19910;-78
2022/08/23 09:25:26;;;;;;;;;;;;;;;;;;5026856;28;19920;-77
2022/08/23 09:28:13;;;;;;;;;;;;;;;;;;5018276;28;19910;-76
2022/08/23 09:30:59;;;;;;;;;;;;;;;;;;5017531;28;19928;-78
2022/08/23 09:33:45;;;;;;;;;;;;;;;;;;5018782;28;19921;-78
2022/08/23 09:36:32;;;;;;;;;;;;;;;;;;5018424;28;19909;-77
2022/08/23 09:39:19;;;;;;;;;;;;;;;;;;5028855;28;19913;-77
2022/08/23 09:42:06;;;;;;;;;;;;;;;;;;5027304;28;20365;-77
2022/08/23 09:44:52;;;;;;;;;;;;;;;;;;5011922;28;20297;-77
2022/08/23 09:47:40;;;;;;;;;;;;;;;;;;5012267;28;19920;-78
2022/08/23 09:50:27;;;;;;;;;;;;;;;;;;5023142;28;19920;-78
2022/08/23 09:53:14;;;;;;;;;;;;;;;;;;5015364;28;20391;-78
2022/08/23 09:56:00;;;;;;;;;;;;;;;;;;5025408;28;20392;-77
2022/08/23 09:58:49;;;;;;;;;;;;;;;;;;5028146;28;19909;-76
2022/08/23 10:01:36;;;;;;;;;;;;;;;;;;5025923;28;19924;-76
2022/08/23 10:04:23;;;;;;;;;;;;;;;;;;5025534;28;20353;-80
2022/08/23 10:07:09;;;;;;;;;;;;;;;;;;5010386;28;19909;-75
2022/08/23 10:09:56;;;;;;;;;;;;;;;;;;5009443;28;19921;-76
2022/08/23 10:12:42;;;;;;;;;;;;;;;;;;5025375;28;19921;-77
2022/08/23 10:15:29;;;;;;;;;;;;;;;;;;5025104;28;19917;-77
2022/08/23 10:18:15;;;;;;;;;;;;;;;;;;5024537;28;19917;-77
2022/08/23 10:21:02;;;;;;;;;;;;;;;;;;5026784;28;19928;-74
2022/08/23 10:23:49;;;;;;;;;;;;;;;;;;5034201;28;19917;-75
2022/08/23 10:26:36;;;;;;;;;;;;;;;;;;5015297;28;20348;-74
2022/08/23 10:29:39;;;;;;;;;;;;;;;;;;5016387;28;19913;-74
2022/08/23 10:32:26;;;;;;;;;;;;;;;;;;5023914;28;19913;-74
2022/08/23 10:35:13;;;;;;;;;;;;;;;;;;5023751;28;19954;-73
2022/08/23 10:38:00;;;;;;;;;;;;;;;;;;5018996;28;19913;-74
2022/08/23 10:40:46;;;;;;;;;;;;;;;;;;5027967;28;20411;-74
2022/08/23 10:43:33;;;;;;;;;;;;;;;;;;5025197;28;19920;-74
2022/08/23 10:46:19;;;;;;;;;;;;;;;;;;5029313;28;20277;-74
2022/08/23 10:49:06;;;;;;;;;;;;;;;;;;5019081;28;20396;-74
2022/08/23 10:51:53;;;;;;;;;;;;;;;;;;5011408;28;19909;-74
2022/08/23 10:54:45;;;;;;;;;;;;;;;;;;5008578;28;19913;-74
2022/08/23 10:57:32;;;;;;;;;;;;;;;;;;5003579;28;19917;-73
2022/08/23 11:00:19;;;;;;;;;;;;;;;;;;5019445;28;19919;-74
2022/08/23 11:03:06;;;;;;;;;;;;;;;;;;5025411;28;19925;-73
2022/08/23 11:05:52;;;;;;;;;;;;;;;;;;5021565;28;19913;-73
2022/08/23 11:08:45;;;;;;;;;;;;;;;;;;5026085;28;19916;-74
2022/08/23 11:11:31;;;;;;;;;;;;;;;;;;5027179;28;19917;-74
2022/08/23 11:14:18;;;;;;;;;;;;;;;;;;5002750;28;19921;-74
2022/08/23 11:17:04;;;;;;;;;;;;;;;;;;5001976;28;19914;-74
2022/08/23 11:19:51;;;;;;;;;;;;;;;;;;4993710;28;19916;-74
2022/08/23 11:22:37;;;;;;;;;;;;;;;;;;5013842;28;19909;-73
2022/08/23 11:25:24;;;;;;;;;;;;;;;;;;5007472;28;19921;-74
2022/08/23 11:28:10;;;;;;;;;;;;;;;;;;4989906;28;19913;-73
2022/08/23 11:30:57;;;;;;;;;;;;;;;;;;5009147;28;19916;-74
2022/08/23 11:33:43;;;;;;;;;;;;;;;;;;5006274;28;20402;-74
2022/08/23 11:36:30;;;;;;;;;;;;;;;;;;5001392;28;19925;-74
2022/08/23 11:39:16;;;;;;;;;;;;;;;;;;5003585;28;19928;-73
2022/08/23 11:42:03;;;;;;;;;;;;;;;;;;4991646;28;19914;-75
2022/08/23 11:44:49;;;;;;;;;;;;;;;;;;5001638;28;19926;-74
2022/08/23 11:47:36;;;;;;;;;;;;;;;;;;5005282;28;19917;-73
2022/08/23 11:50:22;;;;;;;;;;;;;;;;;;5006391;28;19932;-74
2022/08/23 11:53:09;;;;;;;;;;;;;;;;;;5003362;28;19925;-74
2022/08/23 11:55:55;;;;;;;;;;;;;;;;;;5002522;28;19993;-74
2022/08/23 11:58:42;;;;;;;;;;;;;;;;;;5007485;28;19921;-74
2022/08/23 12:01:28;;;;;;;;;;;;;;;;;;4999503;28;19921;-74
2022/08/23 12:04:15;;;;;;;;;;;;;;;;;;5003112;28;20381;-76
2022/08/23 12:07:05;;;;;;;;;;;;;;;;;;5001708;28;19917;-75
2022/08/23 12:09:52;;;;;;;;;;;;;;;;;;5008776;28;19917;-75
2022/08/23 12:12:41;;;;;;;;;;;;;;;;;;4985785;28;19922;-76
2022/08/23 12:15:27;;;;;;;;;;;;;;;;;;4998953;28;19913;-75
2022/08/23 12:18:13;;;;;;;;;;;;;;;;;;5010104;28;20298;-74
2022/08/23 12:21:00;;;;;;;;;;;;;;;;;;5014973;28;20779;-75
2022/08/23 12:23:46;;;;;;;;;;;;;;;;;;5008736;28;19922;-75
2022/08/23 12:26:33;;;;;;;;;;;;;;;;;;5002083;28;19910;-75
2022/08/23 12:29:20;;;;;;;;;;;;;;;;;;5010521;28;19914;-75
2022/08/23 12:32:06;;;;;;;;;;;;;;;;;;5011526;28;19913;-75
2022/08/23 12:34:53;;;;;;;;;;;;;;;;;;4985168;28;19910;-74
2022/08/23 12:37:39;;;;;;;;;;;;;;;;;;5011161;28;19915;-75
2022/08/23 12:40:26;;;;;;;;;;;;;;;;;;5000194;28;19924;-75
2022/08/23 12:43:12;;;;;;;;;;;;;;;;;;5013175;28;19947;-76
2022/08/23 12:45:59;;;;;;;;;;;;;;;;;;5010731;28;20370;-73
2022/08/23 12:48:46;;;;;;;;;;;;;;;;;;5014619;28;19909;-74
2022/08/23 12:51:32;;;;;;;;;;;;;;;;;;5013579;28;19940;-76
2022/08/23 12:54:19;;;;;;;;;;;;;;;;;;5010166;28;20465;-74
2022/08/23 12:57:10;;;;;;;;;;;;;;;;;;5012747;28;19917;-75
2022/08/23 12:59:56;;;;;;;;;;;;;;;;;;4992866;28;19913;-74
2022/08/23 13:02:43;;;;;;;;;;;;;;;;;;4992004;28;20270;-75
2022/08/23 13:05:29;;;;;;;;;;;;;;;;;;4997391;28;19918;-75
2022/08/23 13:08:15;;;;;;;;;;;;;;;;;;5014373;28;20356;-75
2022/08/23 13:11:02;;;;;;;;;;;;;;;;;;5007610;28;19922;-75
2022/08/23 13:13:48;;;;;;;;;;;;;;;;;;5022047;28;19944;-75
2022/08/23 13:16:35;;;;;;;;;;;;;;;;;;5017127;28;19914;-75
2022/08/23 13:19:23;;;;;;;;;;;;;;;;;;5022334;28;20398;-75
2022/08/23 13:22:10;;;;;;;;;;;;;;;;;;5014484;28;19917;-74
2022/08/23 13:24:56;;;;;;;;;;;;;;;;;;5029814;28;19921;-75
2022/08/23 13:27:42;;;;;;;;;;;;;;;;;;5028065;28;19913;-74
2022/08/23 13:30:29;;;;;;;;;;;;;;;;;;5015918;28;19914;-74
2022/08/23 13:33:16;;;;;;;;;;;;;;;;;;5026391;28;19913;-75
2022/08/23 13:36:02;;;;;;;;;;;;;;;;;;5029345;28;19924;-76
2022/08/23 13:38:48;;;;;;;;;;;;;;;;;;5027808;28;20043;-75
2022/08/23 13:41:35;;;;;;;;;;;;;;;;;;5028453;28;19913;-76
2022/08/23 13:44:22;;;;;;;;;;;;;;;;;;5012943;28;19921;-75
2022/08/23 13:47:08;;;;;;;;;;;;;;;;;;5026679;28;20559;-76
2022/08/23 13:49:54;;;;;;;;;;;;;;;;;;5028937;28;19909;-77
2022/08/23 13:52:41;;;;;;;;;;;;;;;;;;5024714;28;19935;-74
2022/08/23 13:55:27;;;;;;;;;;;;;;;;;;5024392;28;19924;-74
2022/08/23 13:58:14;;;;;;;;;;;;;;;;;;5028528;28;19924;-75
2022/08/23 14:01:00;;;;;;;;;;;;;;;;;;5022833;28;20296;-74
2022/08/23 14:03:47;;;;;;;;;;;;;;;;;;5025612;28;19923;-74
2022/08/23 14:06:33;;;;;;;;;;;;;;;;;;5024765;28;19925;-76
2022/08/23 14:09:20;;;;;;;;;;;;;;;;;;5014579;28;20369;-76
2022/08/23 14:12:06;;;;;;;;;;;;;;;;;;5009963;28;20286;-76
2022/08/23 14:14:53;;;;;;;;;;;;;;;;;;5005546;28;19917;-79
2022/08/23 14:17:39;;;;;;;;;;;;;;;;;;5006228;28;19937;-79
2022/08/23 14:20:26;;;;;;;;;;;;;;;;;;5005702;28;19917;-77
2022/08/23 14:23:12;;;;;;;;;;;;;;;;;;5007257;28;19924;-77
2022/08/23 14:25:59;;;;;;;;;;;;;;;;;;5003944;28;20025;-78
2022/08/23 14:28:45;;;;;;;;;;;;;;;;;;5005892;28;19918;-79
2022/08/23 14:31:32;;;;;;;;;;;;;;;;;;4988920;28;19933;-75
2022/08/23 14:34:18;;;;;;;;;;;;;;;;;;5000343;28;19920;-75
2022/08/23 14:37:05;;;;;;;;;;;;;;;;;;5005329;28;19918;-74
2022/08/23 14:39:51;;;;;;;;;;;;;;;;;;5001241;28;19975;-76
2022/08/23 14:42:37;;;;;;;;;;;;;;;;;;5007247;28;19914;-77
2022/08/23 14:45:24;;;;;;;;;;;;;;;;;;5008000;28;20581;-77
2022/08/23 14:48:10;;;;;;;;;;;;;;;;;;4986552;28;19913;-75
2022/08/23 14:50:57;;;;;;;;;;;;;;;;;;5002427;28;19921;-76
2022/08/23 14:53:43;;;;;;;;;;;;;;;;;;5006417;28;20369;-76
2022/08/23 14:56:30;;;;;;;;;;;;;;;;;;5006071;28;19914;-77
2022/08/23 14:59:16;;;;;;;;;;;;;;;;;;5004684;28;20380;-76
2022/08/23 15:02:03;;;;;;;;;;;;;;;;;;5002696;28;19917;-76
2022/08/23 15:04:49;;;;;;;;;;;;;;;;;;4990514;28;20806;-76
2022/08/23 15:07:36;;;;;;;;;;;;;;;;;;5003923;28;19929;-75
2022/08/23 15:10:22;;;;;;;;;;;;;;;;;;5003118;28;20296;-75
2022/08/23 15:13:08;;;;;;;;;;;;;;;;;;5030791;28;19921;-75
2022/08/23 15:15:55;;;;;;;;;;;;;;;;;;5042532;28;20421;-75
2022/08/23 15:18:41;;;;;;;;;;;;;;;;;;5033453;28;19917;-74
2022/08/23 15:21:28;;;;;;;;;;;;;;;;;;5048430;28;20287;-75
2022/08/23 15:24:14;;;;;;;;;;;;;;;;;;5046929;28;19917;-75
2022/08/23 15:27:01;;;;;;;;;;;;;;;;;;5047298;28;19920;-74
2022/08/23 15:29:47;;;;;;;;;;;;;;;;;;5036496;28;19913;-75
2022/08/23 15:32:34;;;;;;;;;;;;;;;;;;5035210;28;19913;-74
2022/08/23 15:35:20;;;;;;;;;;;;;;;;;;5031186;28;19917;-76
2022/08/23 15:38:07;;;;;;;;;;;;;;;;;;5030876;28;19913;-75
2022/08/23 15:40:53;;;;;;;;;;;;;;;;;;5046834;28;19915;-75
2022/08/23 15:43:40;;;;;;;;;;;;;;;;;;5048715;28;20279;-75
2022/08/23 15:46:26;;;;;;;;;;;;;;;;;;5045319;28;19912;-74
2022/08/23 15:49:13;;;;;;;;;;;;;;;;;;5046286;28;20332;-75
2022/08/23 15:51:59;;;;;;;;;;;;;;;;;;5031399;28;20011;-75
2022/08/23 15:54:46;;;;;;;;;;;;;;;;;;5045488;28;19920;-75
2022/08/23 15:57:32;;;;;;;;;;;;;;;;;;5049247;28;19925;-75
2022/08/23 16:00:19;;;;;;;;;;;;;;;;;;5046997;28;19912;-75
2022/08/23 16:03:05;;;;;;;;;;;;;;;;;;5045660;28;20631;-74
2022/08/23 16:05:52;;;;;;;;;;;;;;;;;;5032900;28;19929;-73
2022/08/23 16:08:39;;;;;;;;;;;;;;;;;;5044187;28;19914;-74
2022/08/23 16:11:25;;;;;;;;;;;;;;;;;;5048844;28;19920;-75
2022/08/23 16:14:12;;;;;;;;;;;;;;;;;;5045657;28;20385;-75
2022/08/23 16:16:58;;;;;;;;;;;;;;;;;;5045057;28;19920;-75
2022/08/23 16:19:45;;;;;;;;;;;;;;;;;;5028159;28;19947;-74
2022/08/23 16:22:31;;;;;;;;;;;;;;;;;;5048009;28;19916;-75
2022/08/23 16:25:17;;;;;;;;;;;;;;;;;;5044984;28;19932;-76
2022/08/23 16:28:04;;;;;;;;;;;;;;;;;;5047625;28;19916;-74
2022/08/23 16:30:50;;;;;;;;;;;;;;;;;;5047026;28;20403;-74
2022/08/23 16:33:37;;;;;;;;;;;;;;;;;;5033640;28;20603;-75
2022/08/23 16:36:23;;;;;;;;;;;;;;;;;;5046320;28;19913;-75
2022/08/23 16:39:10;;;;;;;;;;;;;;;;;;5047497;28;19916;-73
2022/08/23 16:41:57;;;;;;;;;;;;;;;;;;5046979;28;20577;-73
2022/08/23 16:44:43;;;;;;;;;;;;;;;;;;5046381;28;19925;-73
2022/08/23 16:47:30;;;;;;;;;;;;;;;;;;5030219;28;20585;-74
2022/08/23 16:50:16;;;;;;;;;;;;;;;;;;5047734;28;19916;-76
2022/08/23 16:53:02;;;;;;;;;;;;;;;;;;5043744;28;19920;-73
2022/08/23 16:55:49;;;;;;;;;;;;;;;;;;5043823;28;19916;-74
2022/08/23 16:58:36;;;;;;;;;;;;;;;;;;5029760;28;19924;-74
2022/08/23 17:01:22;;;;;;;;;;;;;;;;;;5044434;28;19931;-73
2022/08/23 17:04:09;;;;;;;;;;;;;;;;;;5049655;28;19924;-73
2022/08/23 17:06:55;;;;;;;;;;;;;;;;;;5048791;28;19920;-73
2022/08/23 17:09:41;;;;;;;;;;;;;;;;;;5046519;28;19920;-76
2022/08/23 17:12:28;;;;;;;;;;;;;;;;;;5045173;28;19928;-74
2022/08/23 17:15:14;;;;;;;;;;;;;;;;;;5046498;28;19920;-73
2022/08/23 17:18:01;;;;;;;;;;;;;;;;;;5046770;28;19913;-74
2022/08/23 17:20:49;;;;;;;;;;;;;;;;;;5048732;28;20240;-74
2022/08/23 17:23:35;;;;;;;;;;;;;;;;;;5041228;28;19924;-73
2022/08/23 17:26:21;;;;;;;;;;;;;;;;;;5041257;28;19983;-75
2022/08/23 17:29:08;;;;;;;;;;;;;;;;;;5045054;28;19927;-75
2022/08/23 17:31:54;;;;;;;;;;;;;;;;;;5044487;28;19913;-75
2022/08/23 17:34:41;;;;;;;;;;;;;;;;;;5028058;28;19919;-75
2022/08/23 17:37:27;;;;;;;;;;;;;;;;;;5046348;28;19917;-75
2022/08/23 17:40:14;;;;;;;;;;;;;;;;;;5042545;28;20483;-74
2022/08/23 17:43:01;;;;;;;;;;;;;;;;;;5045499;28;19913;-75
2022/08/23 17:45:48;;;;;;;;;;;;;;;;;;5045122;28;19929;-76
2022/08/23 17:48:34;;;;;;;;;;;;;;;;;;5043184;28;20267;-75
2022/08/23 17:51:21;;;;;;;;;;;;;;;;;;5045316;28;19923;-74
2022/08/23 17:54:08;;;;;;;;;;;;;;;;;;5044655;28;19919;-74
2022/08/23 17:56:55;;;;;;;;;;;;;;;;;;5042738;28;19917;-75
2022/08/23 17:59:42;;;;;;;;;;;;;;;;;;5046151;28;19919;-74
2022/08/23 18:02:28;;;;;;;;;;;;;;;;;;5046012;28;19923;-76
2022/08/23 18:05:15;;;;;;;;;;;;;;;;;;5044622;28;20281;-74
2022/08/23 18:08:02;;;;;;;;;;;;;;;;;;5046245;28;19912;-74
2022/08/23 18:10:48;;;;;;;;;;;;;;;;;;5029995;28;19919;-74
2022/08/23 18:13:35;;;;;;;;;;;;;;;;;;5039046;28;19929;-76
2022/08/23 18:16:21;;;;;;;;;;;;;;;;;;5043826;28;19919;-77
2022/08/23 18:19:07;;;;;;;;;;;;;;;;;;5045883;28;20552;-77
2022/08/23 18:21:54;;;;;;;;;;;;;;;;;;5026296;28;21660;-76
2022/08/23 18:24:40;;;;;;;;;;;;;;;;;;5030253;28;19928;-77
2022/08/23 18:30:32;;;;;;;;;;;;;;;;;;5045390;28;19909;-76
2022/08/23 18:33:18;;;;;;;;;;;;;;;;;;5047216;28;19920;-74
2022/08/23 18:36:05;;;;;;;;;;;;;;;;;;5046013;28;19923;-75
2022/08/23 18:38:51;;;;;;;;;;;;;;;;;;5044106;28;19983;-76
2022/08/23 18:41:38;;;;;;;;;;;;;;;;;;5044865;28;19908;-74
2022/08/23 18:44:24;;;;;;;;;;;;;;;;;;5028755;28;20455;-74
2022/08/23 18:47:11;;;;;;;;;;;;;;;;;;5041255;28;19924;-74
2022/08/23 18:49:57;;;;;;;;;;;;;;;;;;5046044;28;19935;-74
2022/08/23 18:52:44;;;;;;;;;;;;;;;;;;5043779;28;19928;-74
2022/08/23 18:55:30;;;;;;;;;;;;;;;;;;5040754;28;19917;-74
2022/08/23 18:58:17;;;;;;;;;;;;;;;;;;5042551;28;19917;-73
2022/08/23 19:01:04;;;;;;;;;;;;;;;;;;5043948;28;20427;-74
2022/08/23 19:03:50;;;;;;;;;;;;;;;;;;5046074;28;19962;-75
2022/08/23 19:06:37;;;;;;;;;;;;;;;;;;5042815;28;19913;-74
2022/08/23 19:09:23;;;;;;;;;;;;;;;;;;5043147;28;19912;-73